Time;durP1;ratioP1;P1;durP2;ratioP2;P2;SDS_P1;SDS_P2;PMS_P1;PMS_P2;Temp;Humidity;BMP_temperature;BMP_pressure;BME280_temperature;BME280_humidity;BME280_pressure;Samples;Min_cycle;Max_cycle;Signal;HPM_P1;HPM_P2
2022/01/05 00:00:52;;;;;;;6.25;1.15;;;;;;;;;;5073063;28;20017;-59
2022/01/05 00:03:17;;;;;;;4.38;1.52;;;;;;;;;;5073042;28;20028;-59
2022/01/05 00:05:43;;;;;;;6.38;1.27;;;;;;;;;;5073008;28;20024;-59
2022/01/05 00:08:08;;;;;;;4.15;1.50;;;;;;;;;;5072547;28;20040;-58
2022/01/05 00:10:34;;;;;;;3.72;1.05;;;;;;;;;;5071516;28;20473;-59
2022/01/05 00:12:59;;;;;;;4.70;1.38;;;;;;;;;;5072903;28;20497;-56
2022/01/05 00:15:24;;;;;;;4.45;1.35;;;;;;;;;;5068573;28;20037;-58
2022/01/05 00:17:49;;;;;;;5.57;1.25;;;;;;;;;;5053043;28;20040;-58
2022/01/05 00:20:15;;;;;;;4.88;1.30;;;;;;;;;;5053164;28;20556;-58
2022/01/05 00:22:40;;;;;;;3.00;1.17;;;;;;;;;;5054029;28;20021;-59
2022/01/05 00:25:05;;;;;;;5.45;1.23;;;;;;;;;;5053206;28;20116;-59
2022/01/05 00:27:31;;;;;;;3.75;0.90;;;;;;;;;;5052830;28;20049;-58
2022/01/05 00:29:57;;;;;;;4.40;1.50;;;;;;;;;;5052785;28;20036;-58
2022/01/05 00:32:23;;;;;;;5.75;1.58;;;;;;;;;;5053424;28;20444;-59
2022/01/05 00:34:48;;;;;;;3.92;1.08;;;;;;;;;;5058357;28;20040;-57
2022/01/05 00:37:13;;;;;;;6.07;1.27;;;;;;;;;;5073052;28;20074;-57
2022/01/05 00:39:39;;;;;;;5.20;0.90;;;;;;;;;;5072664;28;20044;-59
2022/01/05 00:42:04;;;;;;;7.53;1.58;;;;;;;;;;5072582;28;20045;-58
2022/01/05 00:44:29;;;;;;;3.58;1.38;;;;;;;;;;5072919;28;20043;-58
2022/01/05 00:46:55;;;;;;;5.65;1.25;;;;;;;;;;5072949;28;20056;-58
2022/01/05 00:49:20;;;;;;;4.55;1.15;;;;;;;;;;5073414;28;20058;-59
2022/01/05 00:51:45;;;;;;;4.25;1.05;;;;;;;;;;5072313;28;20029;-59
2022/01/05 00:54:10;;;;;;;6.57;1.08;;;;;;;;;;5072655;28;20032;-60
2022/01/05 00:56:36;;;;;;;4.18;1.30;;;;;;;;;;5072624;28;20033;-58
2022/01/05 00:59:03;;;;;;;5.07;1.38;;;;;;;;;;5072616;28;20036;-58
2022/01/05 01:01:28;;;;;;;3.83;1.30;;;;;;;;;;5073069;28;20081;-58
2022/01/05 01:03:53;;;;;;;4.82;1.30;;;;;;;;;;5072469;28;20052;-59
2022/01/05 01:06:18;;;;;;;5.03;1.35;;;;;;;;;;5072472;28;20044;-58
2022/01/05 01:08:44;;;;;;;4.47;1.42;;;;;;;;;;5072098;28;20033;-58
2022/01/05 01:11:09;;;;;;;3.47;1.23;;;;;;;;;;5072213;28;20048;-60
2022/01/05 01:13:34;;;;;;;4.13;1.30;;;;;;;;;;5073002;28;20035;-59
2022/01/05 01:15:59;;;;;;;5.22;1.27;;;;;;;;;;5072589;28;20025;-57
2022/01/05 01:18:25;;;;;;;1.83;0.75;;;;;;;;;;5072054;28;20090;-59
2022/01/05 01:20:50;;;;;;;4.00;1.20;;;;;;;;;;5072378;28;20029;-60
2022/01/05 01:23:19;;;;;;;3.33;1.05;;;;;;;;;;5073733;28;20115;-60
2022/01/05 01:25:44;;;;;;;4.95;1.15;;;;;;;;;;5076789;28;20024;-59
2022/01/05 01:28:09;;;;;;;4.75;1.70;;;;;;;;;;5076582;28;20052;-59
2022/01/05 01:30:35;;;;;;;10.00;0.93;;;;;;;;;;5076072;28;20031;-59
2022/01/05 01:33:00;;;;;;;6.10;1.30;;;;;;;;;;5076626;28;20033;-58
2022/01/05 01:35:26;;;;;;;7.45;0.90;;;;;;;;;;5076339;28;20029;-59
2022/01/05 01:37:51;;;;;;;5.93;2.05;;;;;;;;;;5075609;28;20534;-60
2022/01/05 01:40:16;;;;;;;11.20;1.55;;;;;;;;;;5076440;28;20028;-58
2022/01/05 01:42:42;;;;;;;4.03;1.27;;;;;;;;;;5074874;28;20063;-58
2022/01/05 01:45:07;;;;;;;3.38;1.25;;;;;;;;;;5076245;28;20421;-59
2022/01/05 01:47:32;;;;;;;5.00;1.17;;;;;;;;;;5075901;28;20048;-58
2022/01/05 01:49:58;;;;;;;5.03;1.52;;;;;;;;;;5075822;28;20396;-60
2022/01/05 01:52:23;;;;;;;6.60;1.50;;;;;;;;;;5058146;28;20100;-58
2022/01/05 01:54:48;;;;;;;5.72;1.60;;;;;;;;;;5076011;28;20033;-60
2022/01/05 01:57:14;;;;;;;4.43;0.88;;;;;;;;;;5075676;28;20036;-59
2022/01/05 01:59:39;;;;;;;3.78;1.60;;;;;;;;;;5075475;28;20421;-58
2022/01/05 02:02:05;;;;;;;5.15;1.15;;;;;;;;;;5075877;28;20070;-59
2022/01/05 02:04:31;;;;;;;6.00;1.33;;;;;;;;;;5076423;28;20033;-57
2022/01/05 02:06:56;;;;;;;4.53;2.45;;;;;;;;;;5075504;28;20029;-58
2022/01/05 02:09:21;;;;;;;1.27;0.65;;;;;;;;;;5075348;28;20031;-59
2022/01/05 02:11:47;;;;;;;4.32;1.00;;;;;;;;;;5060439;28;20112;-58
2022/01/05 02:14:12;;;;;;;6.32;1.30;;;;;;;;;;5055886;28;20550;-60
2022/01/05 02:16:41;;;;;;;2.67;0.85;;;;;;;;;;5070807;28;20029;-56
2022/01/05 02:19:06;;;;;;;6.07;1.42;;;;;;;;;;5075211;28;20041;-58
2022/01/05 02:21:33;;;;;;;3.28;0.70;;;;;;;;;;5075462;28;20033;-58
2022/01/05 02:23:59;;;;;;;5.60;0.95;;;;;;;;;;5075305;28;20032;-60
2022/01/05 02:26:24;;;;;;;2.90;1.10;;;;;;;;;;5075456;28;20531;-59
2022/01/05 02:28:49;;;;;;;1.92;0.85;;;;;;;;;;5074857;28;20044;-58
2022/01/05 02:31:14;;;;;;;2.30;0.52;;;;;;;;;;5075823;28;20024;-59
2022/01/05 02:33:40;;;;;;;1.88;0.75;;;;;;;;;;5073441;28;20052;-59
2022/01/05 02:36:06;;;;;;;6.72;1.10;;;;;;;;;;5075144;28;20035;-58
2022/01/05 02:38:31;;;;;;;6.53;1.40;;;;;;;;;;5075246;28;20025;-59
2022/01/05 02:40:56;;;;;;;10.20;2.00;;;;;;;;;;5075028;28;20029;-58
2022/01/05 02:43:21;;;;;;;8.38;1.75;;;;;;;;;;5075660;28;20126;-59
2022/01/05 02:45:47;;;;;;;3.20;0.90;;;;;;;;;;5075177;28;20491;-59
2022/01/05 02:48:12;;;;;;;3.88;1.10;;;;;;;;;;5075001;28;20424;-58
2022/01/05 02:50:38;;;;;;;2.95;1.15;;;;;;;;;;5074843;28;20033;-60
2022/01/05 02:53:03;;;;;;;4.25;1.00;;;;;;;;;;5074543;28;20502;-58
2022/01/05 02:55:28;;;;;;;4.32;1.88;;;;;;;;;;5075457;28;20032;-60
2022/01/05 02:57:53;;;;;;;4.00;1.02;;;;;;;;;;5073430;28;20025;-58
2022/01/05 03:00:19;;;;;;;2.63;1.50;;;;;;;;;;5074479;28;20029;-58
2022/01/05 03:02:44;;;;;;;5.53;1.40;;;;;;;;;;5074947;28;20346;-59
2022/01/05 03:05:10;;;;;;;3.90;1.40;;;;;;;;;;5074730;28;20417;-58
2022/01/05 03:07:39;;;;;;;2.75;1.00;;;;;;;;;;5074679;28;20031;-58
2022/01/05 03:10:05;;;;;;;5.05;1.30;;;;;;;;;;5073235;28;20558;-59
2022/01/05 03:12:30;;;;;;;4.25;0.90;;;;;;;;;;5052879;28;20030;-59
2022/01/05 03:14:55;;;;;;;5.68;0.90;;;;;;;;;;5055284;28;20039;-60
2022/01/05 03:17:20;;;;;;;8.18;1.60;;;;;;;;;;5074786;28;20085;-58
2022/01/05 03:19:46;;;;;;;6.00;1.00;;;;;;;;;;5072684;28;20031;-58
2022/01/05 03:22:11;;;;;;;4.72;1.15;;;;;;;;;;5074535;28;20025;-60
2022/01/05 03:24:36;;;;;;;7.65;1.27;;;;;;;;;;5074044;28;20036;-58
2022/01/05 03:27:03;;;;;;;4.25;1.45;;;;;;;;;;5074035;28;20051;-60
2022/01/05 03:29:28;;;;;;;4.03;1.60;;;;;;;;;;5075817;28;20443;-59
2022/01/05 03:31:54;;;;;;;6.72;1.33;;;;;;;;;;5074016;28;20032;-59
2022/01/05 03:34:20;;;;;;;6.15;1.52;;;;;;;;;;5073191;28;20127;-58
2022/01/05 03:36:46;;;;;;;6.25;1.85;;;;;;;;;;5074107;28;20074;-58
2022/01/05 03:39:11;;;;;;;6.88;2.08;;;;;;;;;;5073807;28;20029;-58
2022/01/05 03:41:36;;;;;;;5.63;1.02;;;;;;;;;;5073887;28;20477;-55
2022/01/05 03:44:02;;;;;;;5.25;2.72;;;;;;;;;;5074077;28;20041;-59
2022/01/05 03:46:27;;;;;;;2.85;1.00;;;;;;;;;;5073729;28;20387;-58
2022/01/05 03:48:53;;;;;;;6.50;0.98;;;;;;;;;;5073731;28;20028;-60
2022/01/05 03:51:18;;;;;;;7.43;1.27;;;;;;;;;;5073483;28;20079;-58
2022/01/05 03:53:43;;;;;;;5.88;1.35;;;;;;;;;;5072020;28;20037;-59
2022/01/05 03:56:09;;;;;;;9.27;1.77;;;;;;;;;;5073508;28;20044;-59
2022/01/05 03:58:34;;;;;;;11.75;1.92;;;;;;;;;;5074050;28;20517;-59
2022/01/05 04:00:59;;;;;;;6.25;1.55;;;;;;;;;;5071984;28;20097;-58
2022/01/05 04:03:24;;;;;;;6.22;2.38;;;;;;;;;;5073617;28;20431;-59
2022/01/05 04:05:49;;;;;;;2.60;1.00;;;;;;;;;;5073646;28;20020;-58
2022/01/05 04:08:15;;;;;;;6.63;1.23;;;;;;;;;;5073354;28;20039;-58
2022/01/05 04:10:40;;;;;;;7.13;1.52;;;;;;;;;;5067847;28;20032;-59
2022/01/05 04:13:05;;;;;;;5.57;1.25;;;;;;;;;;5053419;28;20086;-59
2022/01/05 04:15:31;;;;;;;3.60;1.38;;;;;;;;;;5058918;28;20029;-59
2022/01/05 04:17:56;;;;;;;4.00;1.35;;;;;;;;;;5073374;28;20484;-59
2022/01/05 04:20:21;;;;;;;11.07;1.88;;;;;;;;;;5072700;28;20119;-58
2022/01/05 04:22:47;;;;;;;4.80;1.40;;;;;;;;;;5072871;28;20036;-59
2022/01/05 04:25:12;;;;;;;7.05;1.70;;;;;;;;;;5073378;28;20032;-59
2022/01/05 04:27:38;;;;;;;9.05;1.15;;;;;;;;;;5072889;28;20090;-60
2022/01/05 04:30:04;;;;;;;4.68;0.98;;;;;;;;;;5072832;28;20031;-58
2022/01/05 04:32:29;;;;;;;5.25;1.73;;;;;;;;;;5073027;28;20037;-58
2022/01/05 04:34:54;;;;;;;4.97;1.25;;;;;;;;;;5073181;28;20054;-58
2022/01/05 04:37:20;;;;;;;6.18;1.77;;;;;;;;;;5073318;28;20483;-59
2022/01/05 04:39:45;;;;;;;8.20;1.42;;;;;;;;;;5072562;28;20520;-58
2022/01/05 04:42:10;;;;;;;5.93;1.50;;;;;;;;;;5072638;28;20078;-60
2022/01/05 04:44:36;;;;;;;9.73;1.92;;;;;;;;;;5072884;28;20040;-59
2022/01/05 04:47:01;;;;;;;6.53;2.03;;;;;;;;;;5072799;28;20063;-58
2022/01/05 04:49:26;;;;;;;9.23;1.98;;;;;;;;;;5073024;28;20461;-58
2022/01/05 04:51:52;;;;;;;3.08;1.17;;;;;;;;;;5072501;28;20029;-60
2022/01/05 04:54:17;;;;;;;7.78;1.60;;;;;;;;;;5072721;28;20508;-58
2022/01/05 04:56:42;;;;;;;6.00;1.45;;;;;;;;;;5071959;28;20102;-59
2022/01/05 04:59:07;;;;;;;6.13;1.98;;;;;;;;;;5072707;28;20036;-60
2022/01/05 05:01:33;;;;;;;14.30;2.78;;;;;;;;;;5064452;28;20037;-58
2022/01/05 05:03:58;;;;;;;6.63;1.65;;;;;;;;;;5052466;28;20533;-59
2022/01/05 05:06:23;;;;;;;5.60;1.63;;;;;;;;;;5052025;28;20063;-58
2022/01/05 05:08:49;;;;;;;7.28;1.58;;;;;;;;;;5067429;28;20045;-58
2022/01/05 05:11:14;;;;;;;10.00;2.20;;;;;;;;;;5062427;28;20039;-59
2022/01/05 05:13:40;;;;;;;6.22;1.13;;;;;;;;;;5072558;28;20092;-57
2022/01/05 05:16:05;;;;;;;3.47;1.40;;;;;;;;;;5071438;28;20033;-58
2022/01/05 05:18:30;;;;;;;13.45;1.88;;;;;;;;;;5072406;28;20039;-59
2022/01/05 05:20:55;;;;;;;7.90;2.42;;;;;;;;;;5072144;28;20086;-59
2022/01/05 05:23:20;;;;;;;11.98;2.38;;;;;;;;;;5071848;28;20435;-59
2022/01/05 05:25:46;;;;;;;6.35;1.85;;;;;;;;;;5072604;28;20453;-58
2022/01/05 05:28:11;;;;;;;7.05;1.70;;;;;;;;;;5072750;28;20045;-60
2022/01/05 05:30:37;;;;;;;5.45;1.50;;;;;;;;;;5072270;28;20033;-59
2022/01/05 05:33:05;;;;;;;4.15;1.30;;;;;;;;;;5072244;28;20081;-58
2022/01/05 05:35:30;;;;;;;4.47;1.35;;;;;;;;;;5055738;28;20033;-59
2022/01/05 05:37:56;;;;;;;7.70;2.00;;;;;;;;;;5052412;28;20377;-58
2022/01/05 05:40:21;;;;;;;5.00;1.02;;;;;;;;;;5052388;28;20389;-59
2022/01/05 05:42:47;;;;;;;9.25;1.75;;;;;;;;;;5051982;28;20033;-59
2022/01/05 05:45:12;;;;;;;5.82;1.40;;;;;;;;;;5052373;28;20041;-59
2022/01/05 05:47:37;;;;;;;5.55;1.77;;;;;;;;;;5057896;28;20036;-59
2022/01/05 05:50:03;;;;;;;4.45;1.50;;;;;;;;;;5072190;28;20036;-59
2022/01/05 05:52:28;;;;;;;4.82;1.60;;;;;;;;;;5072178;28;20479;-60
2022/01/05 05:54:53;;;;;;;12.05;1.88;;;;;;;;;;5071938;28;20063;-60
2022/01/05 05:57:18;;;;;;;7.68;1.42;;;;;;;;;;5072138;28;20457;-60
2022/01/05 05:59:43;;;;;;;6.18;1.55;;;;;;;;;;5071910;28;20033;-59
2022/01/05 06:02:09;;;;;;;5.75;1.67;;;;;;;;;;5071711;28;20400;-59
2022/01/05 06:04:34;;;;;;;5.35;1.35;;;;;;;;;;5072306;28;20029;-59
2022/01/05 06:06:59;;;;;;;5.88;1.45;;;;;;;;;;5071940;28;20052;-59
2022/01/05 06:09:24;;;;;;;6.45;1.25;;;;;;;;;;5074266;28;20059;-59
2022/01/05 06:11:50;;;;;;;5.63;1.67;;;;;;;;;;5075057;28;20480;-60
2022/01/05 06:14:15;;;;;;;2.83;1.33;;;;;;;;;;5075501;28;20036;-58
2022/01/05 06:16:41;;;;;;;3.08;0.95;;;;;;;;;;5076174;28;20110;-59
2022/01/05 06:19:06;;;;;;;5.63;1.52;;;;;;;;;;5075393;28;20063;-58
2022/01/05 06:21:32;;;;;;;6.10;1.38;;;;;;;;;;5075227;28;20090;-59
2022/01/05 06:23:57;;;;;;;9.75;2.42;;;;;;;;;;5074962;28;20037;-58
2022/01/05 06:26:22;;;;;;;5.18;1.20;;;;;;;;;;5075497;28;20500;-60
2022/01/05 06:28:48;;;;;;;5.70;1.42;;;;;;;;;;5074763;28;20082;-59
2022/01/05 06:31:13;;;;;;;5.15;1.67;;;;;;;;;;5074034;28;20127;-59
2022/01/05 06:33:38;;;;;;;4.95;1.35;;;;;;;;;;5074804;28;20029;-59
2022/01/05 06:36:03;;;;;;;5.50;1.73;;;;;;;;;;5075146;28;20038;-58
2022/01/05 06:38:29;;;;;;;3.53;0.90;;;;;;;;;;5074970;28;20059;-58
2022/01/05 06:40:54;;;;;;;6.35;1.83;;;;;;;;;;5074919;28;20048;-58
2022/01/05 06:43:19;;;;;;;8.23;1.40;;;;;;;;;;5075211;28;20025;-58
2022/01/05 06:45:44;;;;;;;4.15;1.20;;;;;;;;;;5075078;28;20045;-58
2022/01/05 06:48:09;;;;;;;5.82;1.52;;;;;;;;;;5074778;28;20123;-59
2022/01/05 06:50:35;;;;;;;8.23;2.03;;;;;;;;;;5074859;28;20158;-58
2022/01/05 06:53:01;;;;;;;6.10;1.42;;;;;;;;;;5074276;28;20469;-58
2022/01/05 06:55:26;;;;;;;10.30;2.08;;;;;;;;;;5073584;28;20040;-58
2022/01/05 06:57:52;;;;;;;7.13;2.08;;;;;;;;;;5074777;28;20115;-58
2022/01/05 07:00:18;;;;;;;6.43;1.75;;;;;;;;;;5074912;28;20025;-59
2022/01/05 07:02:43;;;;;;;6.28;1.25;;;;;;;;;;5074508;28;20037;-59
2022/01/05 07:05:08;;;;;;;4.95;1.45;;;;;;;;;;5074537;28;20036;-59
2022/01/05 07:07:35;;;;;;;5.20;1.50;;;;;;;;;;5074830;28;20089;-60
2022/01/05 07:10:00;;;;;;;4.55;1.52;;;;;;;;;;5074131;28;20037;-58
2022/01/05 07:12:25;;;;;;;6.47;1.70;;;;;;;;;;5074139;28;20028;-59
2022/01/05 07:14:50;;;;;;;5.07;1.20;;;;;;;;;;5074245;28;20439;-58
2022/01/05 07:17:16;;;;;;;5.90;1.40;;;;;;;;;;5074418;28;20033;-58
2022/01/05 07:19:41;;;;;;;7.57;1.60;;;;;;;;;;5073780;28;20532;-58
2022/01/05 07:22:06;;;;;;;5.05;1.42;;;;;;;;;;5073889;28;20079;-58
2022/01/05 07:24:31;;;;;;;3.58;1.15;;;;;;;;;;5073962;28;20063;-59
2022/01/05 07:26:57;;;;;;;8.43;1.90;;;;;;;;;;5074437;28;20117;-59
2022/01/05 07:29:22;;;;;;;3.58;1.23;;;;;;;;;;5073890;28;20414;-59
2022/01/05 07:31:47;;;;;;;3.85;1.30;;;;;;;;;;5073789;28;20032;-59
2022/01/05 07:34:13;;;;;;;11.45;1.60;;;;;;;;;;5074290;28;20020;-58
2022/01/05 07:36:38;;;;;;;5.80;1.63;;;;;;;;;;5074053;28;20029;-59
2022/01/05 07:39:05;;;;;;;6.20;1.88;;;;;;;;;;5073725;28;20036;-58
2022/01/05 07:41:31;;;;;;;6.55;1.67;;;;;;;;;;5073665;28;20062;-58
2022/01/05 07:43:56;;;;;;;5.65;1.13;;;;;;;;;;5073711;28;20037;-59
2022/01/05 07:46:21;;;;;;;4.25;1.73;;;;;;;;;;5074290;28;20534;-59
2022/01/05 07:48:46;;;;;;;5.80;1.63;;;;;;;;;;5073750;28;20036;-58
2022/01/05 07:51:12;;;;;;;8.23;1.77;;;;;;;;;;5073717;28;20438;-59
2022/01/05 07:53:37;;;;;;;5.63;1.05;;;;;;;;;;5073163;28;20029;-58
2022/01/05 07:56:02;;;;;;;4.88;1.40;;;;;;;;;;5073611;28;20024;-58
2022/01/05 07:58:27;;;;;;;5.07;1.20;;;;;;;;;;5074175;28;20027;-60
2022/01/05 08:00:53;;;;;;;4.97;1.15;;;;;;;;;;5073343;28;20028;-59
2022/01/05 08:03:18;;;;;;;5.75;1.45;;;;;;;;;;5073287;28;20036;-58
2022/01/05 08:05:44;;;;;;;5.30;1.55;;;;;;;;;;5073248;28;20083;-59
2022/01/05 08:08:09;;;;;;;7.00;1.98;;;;;;;;;;5073251;28;20037;-59
2022/01/05 08:10:34;;;;;;;5.38;1.50;;;;;;;;;;5073069;28;20075;-59
2022/01/05 08:12:59;;;;;;;6.57;1.70;;;;;;;;;;5072873;28;20385;-58
2022/01/05 08:15:25;;;;;;;7.03;1.48;;;;;;;;;;5073003;28;20082;-58
2022/01/05 08:17:50;;;;;;;3.58;1.30;;;;;;;;;;5073260;28;20156;-59
2022/01/05 08:20:15;;;;;;;4.75;1.17;;;;;;;;;;5073278;28;20036;-58
2022/01/05 08:22:41;;;;;;;5.75;1.30;;;;;;;;;;5073155;28;20032;-59
2022/01/05 08:25:08;;;;;;;8.80;1.85;;;;;;;;;;5072816;28;20037;-59
2022/01/05 08:27:33;;;;;;;5.85;1.35;;;;;;;;;;5072962;28;20426;-59
2022/01/05 08:30:04;;;;;;;7.05;1.55;;;;;;;;;;5072785;28;20029;-58
2022/01/05 08:32:29;;;;;;;5.68;1.73;;;;;;;;;;5072416;28;20107;-58
2022/01/05 08:34:54;;;;;;;6.60;1.33;;;;;;;;;;5072600;28;20052;-59
2022/01/05 08:37:19;;;;;;;6.03;1.47;;;;;;;;;;5073679;28;20016;-59
2022/01/05 08:39:49;;;;;;;5.03;1.45;;;;;;;;;;5071009;28;20445;-59
2022/01/05 08:42:15;;;;;;;4.70;1.60;;;;;;;;;;5072623;28;20036;-58
2022/01/05 08:44:40;;;;;;;6.63;1.52;;;;;;;;;;5072621;28;20036;-59
2022/01/05 08:47:06;;;;;;;3.30;1.13;;;;;;;;;;5072758;28;20041;-58
2022/01/05 08:49:31;;;;;;;5.30;1.10;;;;;;;;;;5073270;28;20457;-58
2022/01/05 08:51:56;;;;;;;3.58;0.90;;;;;;;;;;5072461;28;20468;-60
2022/01/05 08:54:21;;;;;;;3.90;1.10;;;;;;;;;;5072160;28;20063;-58
2022/01/05 08:56:47;;;;;;;4.18;1.20;;;;;;;;;;5072430;28;20433;-58
2022/01/05 08:59:13;;;;;;;3.55;0.90;;;;;;;;;;5072506;28;20032;-58
2022/01/05 09:01:42;;;;;;;6.70;1.25;;;;;;;;;;5073024;28;20036;-59
2022/01/05 09:04:08;;;;;;;4.57;1.23;;;;;;;;;;5072290;28;20070;-60
2022/01/05 09:06:33;;;;;;;7.18;1.20;;;;;;;;;;5072221;28;21335;-59
2022/01/05 09:08:58;;;;;;;4.45;1.10;;;;;;;;;;5072541;28;20063;-58
2022/01/05 09:11:23;;;;;;;6.45;1.65;;;;;;;;;;5060258;28;20207;-59
2022/01/05 09:13:49;;;;;;;4.82;1.30;;;;;;;;;;5069652;28;20064;-59
2022/01/05 09:16:15;;;;;;;5.75;1.95;;;;;;;;;;5072888;28;20031;-58
2022/01/05 09:18:40;;;;;;;7.57;1.60;;;;;;;;;;5072663;28;20107;-59
2022/01/05 09:21:05;;;;;;;8.02;1.98;;;;;;;;;;5071583;28;20041;-59
2022/01/05 09:23:30;;;;;;;4.10;1.30;;;;;;;;;;5071890;28;20037;-60
2022/01/05 09:25:56;;;;;;;5.47;1.30;;;;;;;;;;5072084;28;20017;-60
2022/01/05 09:28:21;;;;;;;6.43;1.23;;;;;;;;;;5072747;28;20028;-58
2022/01/05 09:30:46;;;;;;;5.20;1.20;;;;;;;;;;5072078;28;20170;-58
2022/01/05 09:33:13;;;;;;;8.48;1.75;;;;;;;;;;5072017;28;20112;-59
2022/01/05 09:35:38;;;;;;;4.85;1.08;;;;;;;;;;5072131;28;20454;-58
2022/01/05 09:43:13;;;;;;;5.43;1.20;;;;;;;;;;5072364;28;20137;-60
2022/01/05 09:45:42;;;;;;;5.80;1.08;;;;;;;;;;5075450;28;20534;-59
2022/01/05 09:48:20;;;;;;;5.28;1.67;;;;;;;;;;5075601;28;20514;-58
2022/01/05 09:50:50;;;;;;;7.40;1.25;;;;;;;;;;5071012;28;20357;-58
2022/01/05 09:53:15;;;;;;;5.28;1.40;;;;;;;;;;5075324;28;20043;-58
2022/01/05 09:55:41;;;;;;;5.18;1.27;;;;;;;;;;5075707;28;20025;-60
2022/01/05 09:58:06;;;;;;;7.43;1.65;;;;;;;;;;5075729;28;20394;-57
2022/01/05 10:00:31;;;;;;;6.50;1.48;;;;;;;;;;5071009;28;20393;-58
2022/01/05 10:02:56;;;;;;;6.22;1.35;;;;;;;;;;5059750;28;20424;-59
2022/01/05 10:05:22;;;;;;;6.63;1.40;;;;;;;;;;5075293;28;20032;-59
2022/01/05 10:07:47;;;;;;;4.78;1.08;;;;;;;;;;5075479;28;20094;-57
2022/01/05 10:10:12;;;;;;;3.42;0.88;;;;;;;;;;5075112;28;20411;-59
2022/01/05 10:12:38;;;;;;;3.58;1.10;;;;;;;;;;5073990;28;20025;-58
2022/01/05 10:15:03;;;;;;;2.85;1.20;;;;;;;;;;5075339;28;20032;-60
2022/01/05 10:17:30;;;;;;;5.38;1.20;;;;;;;;;;5075497;28;20033;-59
2022/01/05 10:19:56;;;;;;;4.20;1.10;;;;;;;;;;5074616;28;20154;-59
2022/01/05 10:22:27;;;;;;;7.10;1.15;;;;;;;;;;5074446;28;20557;-58
2022/01/05 10:24:54;;;;;;;5.22;1.50;;;;;;;;;;5075197;28;20029;-59
2022/01/05 10:27:20;;;;;;;5.38;1.23;;;;;;;;;;5075306;28;20033;-58
2022/01/05 10:29:59;;;;;;;6.20;1.40;;;;;;;;;;5073603;28;20049;-62
2022/01/05 10:32:26;;;;;;;3.75;1.05;;;;;;;;;;5073554;28;20095;-62
2022/01/05 10:35:01;;;;;;;2.67;1.00;;;;;;;;;;5074875;28;20031;-60
2022/01/05 10:37:27;;;;;;;2.70;0.93;;;;;;;;;;5075182;28;20013;-60
2022/01/05 10:40:09;;;;;;;3.22;0.98;;;;;;;;;;5074500;28;20407;-64
2022/01/05 10:42:36;;;;;;;8.35;1.52;;;;;;;;;;5073646;28;20037;-62
2022/01/05 10:45:05;;;;;;;5.43;1.52;;;;;;;;;;5074343;28;20479;-62
2022/01/05 10:47:30;;;;;;;9.80;1.57;;;;;;;;;;5072947;28;20158;-62
2022/01/05 10:49:56;;;;;;;7.78;1.77;;;;;;;;;;5073103;28;20100;-61
2022/01/05 10:52:23;;;;;;;4.85;1.20;;;;;;;;;;5073558;28;20029;-62
2022/01/05 10:54:49;;;;;;;5.55;1.08;;;;;;;;;;5072533;28;20039;-65
2022/01/05 10:57:15;;;;;;;5.05;1.20;;;;;;;;;;5073057;28;20021;-65
2022/01/05 10:59:42;;;;;;;6.85;1.00;;;;;;;;;;5073005;28;20400;-64
2022/01/05 11:02:19;;;;;;;6.35;0.93;;;;;;;;;;5073361;28;20067;-62
2022/01/05 11:04:45;;;;;;;4.00;1.15;;;;;;;;;;5071873;28;20107;-62
2022/01/05 11:07:18;;;;;;;6.38;0.80;;;;;;;;;;5073168;28;20120;-62
2022/01/05 11:09:51;;;;;;;3.63;1.13;;;;;;;;;;5073071;28;20028;-63
2022/01/05 11:12:16;;;;;;;6.75;1.77;;;;;;;;;;5071526;28;20104;-61
2022/01/05 11:14:41;;;;;;;9.02;1.20;;;;;;;;;;5073072;28;20125;-61
2022/01/05 11:17:07;;;;;;;8.40;1.40;;;;;;;;;;5072594;28;20024;-61
2022/01/05 11:19:33;;;;;;;6.43;1.35;;;;;;;;;;5072891;28;20021;-62
2022/01/05 11:22:02;;;;;;;5.70;1.48;;;;;;;;;;5072303;28;20056;-60
2022/01/05 11:24:29;;;;;;;7.43;1.25;;;;;;;;;;5072023;28;20028;-61
2022/01/05 11:26:54;;;;;;;4.07;1.35;;;;;;;;;;5072665;28;20031;-61
2022/01/05 11:29:19;;;;;;;6.00;1.42;;;;;;;;;;5071858;28;20036;-60
2022/01/05 11:31:45;;;;;;;5.40;2.30;;;;;;;;;;5072617;28;20028;-59
2022/01/05 11:34:10;;;;;;;2.63;1.00;;;;;;;;;;5072112;28;20062;-61
2022/01/05 11:36:36;;;;;;;6.00;1.50;;;;;;;;;;5072180;28;20040;-60
2022/01/05 11:39:03;;;;;;;5.18;1.10;;;;;;;;;;5071896;28;20115;-60
2022/01/05 11:41:29;;;;;;;6.68;1.40;;;;;;;;;;5072360;28;20115;-60
2022/01/05 11:43:54;;;;;;;3.00;0.90;;;;;;;;;;5072581;28;20524;-59
2022/01/05 11:46:20;;;;;;;6.63;1.10;;;;;;;;;;5073769;28;20107;-59
2022/01/05 11:48:58;;;;;;;4.97;1.10;;;;;;;;;;5073267;28;20438;-61
2022/01/05 11:51:30;;;;;;;9.68;2.20;;;;;;;;;;5071315;28;20029;-60
2022/01/05 11:54:12;;;;;;;5.00;1.05;;;;;;;;;;5071672;28;20067;-63
2022/01/05 11:56:41;;;;;;;6.55;1.75;;;;;;;;;;5072648;28;20484;-62
2022/01/05 11:59:17;;;;;;;2.45;0.90;;;;;;;;;;5059611;28;20033;-62
2022/01/05 12:01:55;;;;;;;5.93;1.48;;;;;;;;;;5053506;28;20033;-59
2022/01/05 12:04:22;;;;;;;11.52;1.55;;;;;;;;;;5054704;28;20431;-60
2022/01/05 12:06:47;;;;;;;11.10;1.30;;;;;;;;;;5071472;28;20119;-62
2022/01/05 12:09:20;;;;;;;7.07;1.53;;;;;;;;;;5072149;28;20108;-60
2022/01/05 12:11:46;;;;;;;3.95;1.05;;;;;;;;;;5071912;28;20428;-61
2022/01/05 12:14:20;;;;;;;10.40;2.30;;;;;;;;;;5070101;28;20032;-60
2022/01/05 12:17:06;;;;;;;6.95;1.75;;;;;;;;;;5063476;28;20012;-59
2022/01/05 12:19:36;;;;;;;6.45;1.42;;;;;;;;;;5068483;28;20105;-60
2022/01/05 12:22:08;;;;;;;6.33;1.30;;;;;;;;;;5067569;28;20044;-60
2022/01/05 12:24:52;;;;;;;5.72;1.00;;;;;;;;;;5066426;28;20040;-61
2022/01/05 12:27:17;;;;;;;7.30;2.85;;;;;;;;;;5068051;28;20044;-60
2022/01/05 12:29:43;;;;;;;5.15;1.88;;;;;;;;;;5067744;28;20033;-60
2022/01/05 12:32:11;;;;;;;10.63;1.42;;;;;;;;;;5068694;28;20484;-60
2022/01/05 12:34:54;;;;;;;8.73;1.85;;;;;;;;;;5066264;28;20025;-60
2022/01/05 12:37:38;;;;;;;10.40;2.08;;;;;;;;;;5067494;28;20032;-60
2022/01/05 12:40:23;;;;;;;5.82;1.50;;;;;;;;;;5068413;28;20449;-60
2022/01/05 12:42:49;;;;;;;7.05;1.55;;;;;;;;;;5067032;28;20069;-60
2022/01/05 12:45:33;;;;;;;9.82;1.85;;;;;;;;;;5068084;28;20032;-60
2022/01/05 12:47:58;;;;;;;6.03;1.35;;;;;;;;;;5068716;28;20029;-61
2022/01/05 12:50:31;;;;;;;8.55;1.48;;;;;;;;;;5069266;28;20044;-63
2022/01/05 12:52:56;;;;;;;8.73;1.50;;;;;;;;;;5066774;28;20072;-62
2022/01/05 12:55:23;;;;;;;12.65;1.65;;;;;;;;;;5068878;28;20064;-62
2022/01/05 12:57:52;;;;;;;7.45;1.92;;;;;;;;;;5068887;28;20028;-65
2022/01/05 13:00:17;;;;;;;5.20;1.63;;;;;;;;;;5068219;28;20024;-65
2022/01/05 13:02:43;;;;;;;7.50;1.15;;;;;;;;;;5066757;28;20028;-63
2022/01/05 13:05:09;;;;;;;8.80;1.60;;;;;;;;;;5067715;28;20055;-63
2022/01/05 13:07:39;;;;;;;7.57;1.75;;;;;;;;;;5068839;28;20048;-67
2022/01/05 13:10:08;;;;;;;7.70;1.15;;;;;;;;;;5068087;28;20094;-64
2022/01/05 13:12:34;;;;;;;4.05;0.90;;;;;;;;;;5068171;28;20128;-63
2022/01/05 13:15:06;;;;;;;7.25;1.73;;;;;;;;;;5067161;28;20104;-64
2022/01/05 13:17:32;;;;;;;6.95;1.33;;;;;;;;;;5068434;28;20692;-64
2022/01/05 13:19:58;;;;;;;14.73;2.10;;;;;;;;;;5073148;28;20388;-64
2022/01/05 13:22:30;;;;;;;12.70;2.10;;;;;;;;;;5073890;28;20014;-65
2022/01/05 13:24:59;;;;;;;5.40;1.40;;;;;;;;;;5070797;28;20032;-65
2022/01/05 13:27:29;;;;;;;3.90;1.50;;;;;;;;;;5103418;28;20029;-65
2022/01/05 13:29:55;;;;;;;7.50;1.50;;;;;;;;;;5070642;28;20443;-64
2022/01/05 13:32:21;;;;;;;10.35;1.70;;;;;;;;;;5073318;28;20056;-66
2022/01/05 13:34:48;;;;;;;8.40;1.52;;;;;;;;;;5071225;28;20024;-66
2022/01/05 13:37:26;;;;;;;8.43;1.80;;;;;;;;;;5072681;28;20519;-66
2022/01/05 13:39:51;;;;;;;10.35;1.63;;;;;;;;;;5072326;28;20029;-66
2022/01/05 13:42:18;;;;;;;9.35;2.00;;;;;;;;;;5071664;28;20051;-63
2022/01/05 13:44:45;;;;;;;7.13;1.40;;;;;;;;;;5071567;27;20560;-62
2022/01/05 13:47:11;;;;;;;4.43;1.45;;;;;;;;;;5072565;28;20036;-62
2022/01/05 13:49:37;;;;;;;9.80;1.70;;;;;;;;;;5070547;28;21576;-61
2022/01/05 13:52:07;;;;;;;8.93;1.85;;;;;;;;;;5068115;28;20036;-61
2022/01/05 13:54:33;;;;;;;7.82;1.15;;;;;;;;;;5068637;28;20123;-61
2022/01/05 13:56:58;;;;;;;6.10;2.00;;;;;;;;;;5068272;28;20166;-61
2022/01/05 13:59:23;;;;;;;5.68;1.60;;;;;;;;;;5068654;28;20501;-62
2022/01/05 14:01:58;;;;;;;4.32;0.82;;;;;;;;;;5067134;28;20021;-61
2022/01/05 14:04:23;;;;;;;5.68;1.38;;;;;;;;;;5068973;28;20013;-61
2022/01/05 14:06:58;;;;;;;9.70;1.48;;;;;;;;;;5066478;28;20401;-61
2022/01/05 14:09:30;;;;;;;5.28;1.00;;;;;;;;;;5068520;28;20032;-60
2022/01/05 14:11:59;;;;;;;9.02;1.58;;;;;;;;;;5069232;28;20033;-60
2022/01/05 14:14:24;;;;;;;9.95;2.65;;;;;;;;;;5071375;28;20048;-65
2022/01/05 14:16:50;;;;;;;8.93;1.52;;;;;;;;;;5068758;28;20519;-62
2022/01/05 14:19:29;;;;;;;5.07;0.85;;;;;;;;;;5067660;28;20318;-63
2022/01/05 14:22:05;;;;;;;5.32;1.00;;;;;;;;;;5067991;28;20028;-62
2022/01/05 14:24:36;;;;;;;9.57;2.13;;;;;;;;;;5067882;28;20037;-61
2022/01/05 14:27:03;;;;;;;4.43;1.17;;;;;;;;;;5066852;28;20063;-61
2022/01/05 14:29:29;;;;;;;9.00;1.48;;;;;;;;;;5067595;28;20540;-60
2022/01/05 14:32:06;;;;;;;4.57;1.40;;;;;;;;;;5068872;28;20013;-60
2022/01/05 14:34:37;;;;;;;8.15;1.52;;;;;;;;;;5066147;28;20027;-59
2022/01/05 14:37:04;;;;;;;5.43;1.58;;;;;;;;;;5068184;28;20114;-61
2022/01/05 14:39:40;;;;;;;7.03;1.80;;;;;;;;;;5068966;28;20037;-59
2022/01/05 14:42:13;;;;;;;7.63;1.55;;;;;;;;;;5068779;28;20048;-59
2022/01/05 14:44:39;;;;;;;8.52;2.75;;;;;;;;;;5068020;28;20133;-59